Big Bear Station Historical Data
Daily Summary for January 26, 2020 Units:  English    Metric   Both
Next Day »
Daily Weekly Monthly Yearly Custom
  High: Low: Average:
Temperature: 48.2 °F 28.2 °F 36.4 °F
Dew Point: 36.4 °F 26.8 °F 31.1 °F
Humidity: 98% 56% 82%
Wind Speed: 9.9mph 0mph 1.7mph
Wind Gust: -999mph - -
Wind- - WNW
Pressure: 23.59 in 23.51 in -
Precipitation: 0 in    
Historical Graphs
 
 
Tabular Data for January 26, 2020
Time Temperature Dew Point Pressure Wind Wind Speed Wind Gust Humidity Rainfall Rate (Hourly)
00:09 30.2 °F 28.4 °F 23.59 in Calm   -999 mph 93% 0.00 in
00:25 29.8 °F 28 °F 23.59 in Calm   -999 mph 93% 0.00 in
00:40 29.8 °F 28 °F 23.58 in Calm   -999 mph 93% 0.00 in
00:55 30 °F 28 °F 23.58 in Calm   -999 mph 92% 0.00 in
01:10 29.7 °F 27.9 °F 23.58 in Calm   -999 mph 93% 0.00 in
01:25 29.7 °F 27.9 °F 23.58 in Calm   -999 mph 93% 0.00 in
01:41 29.7 °F 27.9 °F 23.58 in Calm   -999 mph 93% 0.00 in
01:56 29.3 °F 27.5 °F 23.57 in Calm   -999 mph 93% 0.00 in
02:11 29.7 °F 27.7 °F 23.57 in South 1.1 mph -999 mph 92% 0.00 in
02:26 28.9 °F 26.9 °F 23.57 in Calm   -999 mph 92% 0.00 in
02:42 29.3 °F 27.5 °F 23.57 in Calm   -999 mph 93% 0.00 in
02:57 28.9 °F 27.4 °F 23.57 in Calm   -999 mph 94% 0.00 in
03:12 29.1 °F 28.1 °F 23.57 in Calm   -999 mph 96% 0.00 in
03:27 28.8 °F 27.8 °F 23.57 in Calm   -999 mph 96% 0.00 in
03:43 28.8 °F 28.1 °F 23.56 in Calm   -999 mph 97% 0.00 in
03:58 28.9 °F 27.9 °F 23.56 in Calm   -999 mph 96% 0.00 in
04:13 29.3 °F 27.3 °F 23.56 in Calm   -999 mph 92% 0.00 in
04:29 28.8 °F 27.5 °F 23.56 in Calm   -999 mph 95% 0.00 in
04:44 28.8 °F 27.5 °F 23.56 in Calm   -999 mph 95% 0.00 in
04:59 29.1 °F 26.8 °F 23.56 in Calm   -999 mph 91% 0.00 in
05:14 28.6 °F 27.1 °F 23.56 in Calm   -999 mph 94% 0.00 in
05:29 28.4 °F 27.4 °F 23.56 in Calm   -999 mph 96% 0.00 in
05:45 28.8 °F 27.8 °F 23.56 in Calm   -999 mph 96% 0.00 in
06:00 28.6 °F 27.4 °F 23.56 in Calm   -999 mph 95% 0.00 in
06:15 28.2 °F 27.5 °F 23.56 in Calm   -999 mph 97% 0.00 in
06:30 28.4 °F 27.7 °F 23.56 in Calm   -999 mph 97% 0.00 in
06:45 28.2 °F 27.7 °F 23.56 in Calm   -999 mph 98% 0.00 in
07:01 28.4 °F 27.9 °F 23.56 in Calm   -999 mph 98% 0.00 in
07:16 28.2 °F 27.5 °F 23.57 in Calm   -999 mph 97% 0.00 in
07:31 28.4 °F 27.9 °F 23.57 in Calm   -999 mph 98% 0.00 in
07:46 28.9 °F 28.4 °F 23.57 in Calm   -999 mph 98% 0.00 in
08:02 29.8 °F 29.3 °F 23.57 in Calm   -999 mph 98% 0.00 in
08:17 30.2 °F 29.7 °F 23.57 in Calm   -999 mph 98% 0.00 in
08:32 32.4 °F 31.9 °F 23.57 in Calm   -999 mph 98% 0.00 in
08:47 34.9 °F 34.1 °F 23.57 in Calm   -999 mph 97% 0.00 in
09:02 37 °F 36 °F 23.57 in Calm   -999 mph 96% 0.00 in
09:18 39.9 °F 36.1 °F 23.57 in Calm   -999 mph 86% 0.00 in
09:33 42.6 °F 33.9 °F 23.58 in WNW 2.2 mph -999 mph 71% 0.00 in
09:48 44.2 °F 31.2 °F 23.58 in NW 2.2 mph -999 mph 60% 0.00 in
10:03 45.7 °F 30.9 °F 23.58 in Calm   -999 mph 56% 0.00 in
10:18 46.4 °F 32 °F 23.58 in NNW 3.2 mph -999 mph 57% 0.00 in
10:34 45.5 °F 33.2 °F 23.59 in WNW 1.1 mph -999 mph 62% 0.00 in
10:49 45.1 °F 34 °F 23.58 in NW 2.2 mph -999 mph 65% 0.00 in
11:04 46 °F 33.3 °F 23.58 in NW 3.2 mph -999 mph 61% 0.00 in
11:19 47.1 °F 32.6 °F 23.57 in WNW 4.2 mph -999 mph 57% 0.00 in
11:34 47.3 °F 33.3 °F 23.56 in NW 2.7 mph -999 mph 58% 0.00 in
11:50 46.6 °F 34.3 °F 23.56 in WNW 3.2 mph -999 mph 62% 0.00 in
12:05 45.9 °F 35.6 °F 23.56 in SSW 2.7 mph -999 mph 67% 0.00 in
12:20 45.7 °F 35 °F 23.55 in NW 3.2 mph -999 mph 66% 0.00 in
12:36 46.8 °F 35.3 °F 23.55 in NW 2.7 mph -999 mph 64% 0.00 in
12:51 46.8 °F 33.2 °F 23.54 in North 3.7 mph -999 mph 59% 0.00 in
13:06 48.2 °F 34.5 °F 23.54 in NW 3.7 mph -999 mph 59% 0.00 in
13:21 47.3 °F 34.9 °F 23.53 in West 3.2 mph -999 mph 62% 0.00 in
13:37 46.4 °F 35.3 °F 23.53 in NNW 4.7 mph -999 mph 65% 0.00 in
13:52 46.8 °F 35.3 °F 23.53 in Calm   -999 mph 64% 0.00 in
14:07 46 °F 35.3 °F 23.53 in Calm   -999 mph 66% 0.00 in
14:22 46.9 °F 35.7 °F 23.53 in Calm   -999 mph 65% 0.00 in
14:38 47.1 °F 36.3 °F 23.52 in NW 3.2 mph -999 mph 66% 0.00 in
14:53 45.9 °F 35.6 °F 23.52 in NNW 3.2 mph -999 mph 67% 0.00 in
15:09 45.1 °F 35.2 °F 23.51 in NE 4.7 mph -999 mph 68% 0.00 in
15:24 44.4 °F 35.2 °F 23.52 in NW 5.3 mph -999 mph 70% 0.00 in
15:39 44.2 °F 34.7 °F 23.52 in NNW 2.7 mph -999 mph 69% 0.00 in
15:55 43.7 °F 33.8 °F 23.51 in Calm   -999 mph 68% 0.00 in
16:10 43 °F 32.4 °F 23.52 in NW 3.7 mph -999 mph 66% 0.00 in
16:25 42.4 °F 32.2 °F 23.52 in Calm   -999 mph 67% 0.00 in
16:40 41.7 °F 33.3 °F 23.51 in Calm   -999 mph 72% 0.00 in
16:56 40.8 °F 35.4 °F 23.52 in Calm   -999 mph 81% 0.00 in
17:11 40.5 °F 36.3 °F 23.52 in NNE 2.7 mph -999 mph 85% 0.00 in
17:26 39.7 °F 36.4 °F 23.53 in NW 4.7 mph -999 mph 88% 0.00 in
17:42 38.5 °F 35.8 °F 23.54 in SE 2.7 mph -999 mph 90% 0.00 in
17:57 37.8 °F 35.1 °F 23.55 in SW 5.8 mph -999 mph 90% 0.00 in
18:12 37.2 °F 34.5 °F 23.54 in NW 4.7 mph -999 mph 90% 0.00 in
18:28 36.9 °F 34.2 °F 23.54 in NW 2.2 mph -999 mph 90% 0.00 in
18:44 36.7 °F 34 °F 23.54 in NW 2.7 mph -999 mph 90% 0.00 in
18:59 36.1 °F 33.7 °F 23.55 in WNW 2.2 mph -999 mph 91% 0.00 in
19:14 35.6 °F 33.2 °F 23.54 in Calm   -999 mph 91% 0.00 in
19:29 35.1 °F 32.2 °F 23.54 in Calm   -999 mph 89% 0.00 in
19:45 35.6 °F 29.4 °F 23.54 in NNE 2.2 mph -999 mph 78% 0.00 in
20:00 35.1 °F 31.9 °F 23.55 in NNW 4.2 mph -999 mph 88% 0.00 in
20:15 34.9 °F 30.6 °F 23.55 in North 5.3 mph -999 mph 84% 0.00 in
20:30 34.7 °F 30.7 °F 23.56 in NW 4.7 mph -999 mph 85% 0.00 in
20:45 34.7 °F 29.5 °F 23.56 in NNW 7.8 mph -999 mph 81% 0.00 in
21:01 35.1 °F 30.5 °F 23.56 in NNW 6.8 mph -999 mph 83% 0.00 in
21:16 34.9 °F 30 °F 23.56 in NNW 6.3 mph -999 mph 82% 0.00 in
21:32 35.2 °F 29.7 °F 23.56 in NNW 6.8 mph -999 mph 80% 0.00 in
21:47 36 °F 29.8 °F 23.56 in West 9.9 mph -999 mph 78% 0.00 in
22:02 36.3 °F 29.1 °F 23.56 in NNW 4.7 mph -999 mph 75% 0.00 in
22:18 35.4 °F 29.5 °F 23.57 in Calm   -999 mph 79% 0.00 in
22:33 34 °F 28.5 °F 23.57 in Calm   -999 mph 80% 0.00 in
22:48 32.7 °F 28.1 °F 23.58 in NW 2.7 mph -999 mph 83% 0.00 in
23:03 33.8 °F 28.9 °F 23.58 in Calm   -999 mph 82% 0.00 in
23:18 32 °F 27.4 °F 23.58 in Calm   -999 mph 83% 0.00 in
23:34 30.9 °F 27.5 °F 23.58 in Calm   -999 mph 87% 0.00 in
23:49 30.4 °F 27.3 °F 23.58 in Calm   -999 mph 88% 0.00 in
Big Bear CA Weather